sensor_id;sensor_type;location;lat;lon;timestamp;P1;durP1;ratioP1;P2;durP2;ratioP2
4460;SDS011;2243;48.812;9.232;2023-03-20T00:00:27;2.67;;;2.47;;
4460;SDS011;2243;48.812;9.232;2023-03-20T00:03:10;1.63;;;1.53;;
4460;SDS011;2243;48.812;9.232;2023-03-20T00:05:42;1.97;;;1.87;;
4460;SDS011;2243;48.812;9.232;2023-03-20T00:08:13;2.00;;;1.70;;
4460;SDS011;2243;48.812;9.232;2023-03-20T00:10:45;1.80;;;1.70;;
4460;SDS011;2243;48.812;9.232;2023-03-20T00:13:20;1.50;;;1.40;;
4460;SDS011;2243;48.812;9.232;2023-03-20T00:15:55;1.83;;;1.73;;
4460;SDS011;2243;48.812;9.232;2023-03-20T00:18:26;1.23;;;1.13;;
4460;SDS011;2243;48.812;9.232;2023-03-20T00:20:58;2.03;;;1.93;;
4460;SDS011;2243;48.812;9.232;2023-03-20T00:23:29;1.60;;;1.50;;
4460;SDS011;2243;48.812;9.232;2023-03-20T00:26:01;2.47;;;1.47;;
4460;SDS011;2243;48.812;9.232;2023-03-20T00:28:36;1.60;;;1.50;;
4460;SDS011;2243;48.812;9.232;2023-03-20T00:33:56;1.70;;;1.63;;
4460;SDS011;2243;48.812;9.232;2023-03-20T00:36:33;2.50;;;1.57;;
4460;SDS011;2243;48.812;9.232;2023-03-20T00:39:03;1.83;;;1.73;;
4460;SDS011;2243;48.812;9.232;2023-03-20T00:46:54;1.90;;;1.80;;
4460;SDS011;2243;48.812;9.232;2023-03-20T00:49:33;2.10;;;1.90;;
4460;SDS011;2243;48.812;9.232;2023-03-20T00:52:05;1.83;;;1.77;;
4460;SDS011;2243;48.812;9.232;2023-03-20T00:54:38;1.93;;;1.83;;
4460;SDS011;2243;48.812;9.232;2023-03-20T00:57:13;2.40;;;2.07;;
4460;SDS011;2243;48.812;9.232;2023-03-20T00:59:54;3.43;;;2.63;;
4460;SDS011;2243;48.812;9.232;2023-03-20T01:02:34;3.27;;;2.97;;
4460;SDS011;2243;48.812;9.232;2023-03-20T01:05:05;2.90;;;2.70;;
4460;SDS011;2243;48.812;9.232;2023-03-20T01:07:37;2.80;;;2.70;;
4460;SDS011;2243;48.812;9.232;2023-03-20T01:10:08;4.47;;;3.30;;
4460;SDS011;2243;48.812;9.232;2023-03-20T01:12:42;2.90;;;2.80;;
4460;SDS011;2243;48.812;9.232;2023-03-20T01:15:15;2.90;;;2.80;;
4460;SDS011;2243;48.812;9.232;2023-03-20T01:17:51;3.60;;;3.40;;
4460;SDS011;2243;48.812;9.232;2023-03-20T01:20:24;3.47;;;3.27;;
4460;SDS011;2243;48.812;9.232;2023-03-20T01:22:58;3.37;;;3.17;;
4460;SDS011;2243;48.812;9.232;2023-03-20T01:25:29;4.23;;;3.93;;
4460;SDS011;2243;48.812;9.232;2023-03-20T01:28:00;4.23;;;3.87;;
4460;SDS011;2243;48.812;9.232;2023-03-20T01:30:31;3.70;;;3.60;;
4460;SDS011;2243;48.812;9.232;2023-03-20T01:33:05;3.57;;;3.37;;
4460;SDS011;2243;48.812;9.232;2023-03-20T01:35:48;4.93;;;4.07;;
4460;SDS011;2243;48.812;9.232;2023-03-20T01:38:23;3.30;;;3.10;;
4460;SDS011;2243;48.812;9.232;2023-03-20T01:43:47;3.80;;;3.50;;
4460;SDS011;2243;48.812;9.232;2023-03-20T01:46:26;3.70;;;3.50;;
4460;SDS011;2243;48.812;9.232;2023-03-20T01:51:58;3.43;;;3.33;;
4460;SDS011;2243;48.812;9.232;2023-03-20T01:54:29;5.40;;;4.60;;
4460;SDS011;2243;48.812;9.232;2023-03-20T01:57:09;4.80;;;4.50;;
4460;SDS011;2243;48.812;9.232;2023-03-20T02:00:04;6.63;;;5.20;;
4460;SDS011;2243;48.812;9.232;2023-03-20T02:02:43;5.20;;;4.80;;
4460;SDS011;2243;48.812;9.232;2023-03-20T02:05:17;5.47;;;5.07;;
4460;SDS011;2243;48.812;9.232;2023-03-20T02:08:10;5.37;;;4.87;;
4460;SDS011;2243;48.812;9.232;2023-03-20T02:10:53;5.43;;;5.03;;
4460;SDS011;2243;48.812;9.232;2023-03-20T02:13:28;4.93;;;4.27;;
4460;SDS011;2243;48.812;9.232;2023-03-20T02:16:05;4.67;;;4.27;;
4460;SDS011;2243;48.812;9.232;2023-03-20T02:18:42;4.97;;;4.60;;
4460;SDS011;2243;48.812;9.232;2023-03-20T02:45:27;2.90;;;2.80;;
4460;SDS011;2243;48.812;9.232;2023-03-20T02:51:17;2.37;;;2.27;;
4460;SDS011;2243;48.812;9.232;2023-03-20T02:57:10;1.40;;;1.30;;
4460;SDS011;2243;48.812;9.232;2023-03-20T03:00:02;1.50;;;1.40;;
4460;SDS011;2243;48.812;9.232;2023-03-20T03:02:47;1.30;;;1.30;;
4460;SDS011;2243;48.812;9.232;2023-03-20T03:08:17;2.40;;;1.60;;
4460;SDS011;2243;48.812;9.232;2023-03-20T03:10:52;3.63;;;1.77;;
4460;SDS011;2243;48.812;9.232;2023-03-20T03:13:29;1.37;;;1.27;;
4460;SDS011;2243;48.812;9.232;2023-03-20T03:16:06;1.60;;;1.50;;
4460;SDS011;2243;48.812;9.232;2023-03-20T03:18:43;1.20;;;1.20;;
4460;SDS011;2243;48.812;9.232;2023-03-20T03:21:16;1.53;;;1.43;;
4460;SDS011;2243;48.812;9.232;2023-03-20T03:23:48;1.13;;;1.10;;
4460;SDS011;2243;48.812;9.232;2023-03-20T03:26:26;1.23;;;1.23;;
4460;SDS011;2243;48.812;9.232;2023-03-20T03:29:04;1.10;;;1.10;;
4460;SDS011;2243;48.812;9.232;2023-03-20T03:31:42;1.17;;;1.17;;
4460;SDS011;2243;48.812;9.232;2023-03-20T03:34:15;1.20;;;1.20;;
4460;SDS011;2243;48.812;9.232;2023-03-20T03:37:00;3.50;;;1.10;;
4460;SDS011;2243;48.812;9.232;2023-03-20T03:39:48;1.37;;;0.90;;
4460;SDS011;2243;48.812;9.232;2023-03-20T03:43:17;0.80;;;0.80;;
4460;SDS011;2243;48.812;9.232;2023-03-20T03:46:08;1.00;;;1.00;;
4460;SDS011;2243;48.812;9.232;2023-03-20T03:48:47;1.10;;;1.10;;
4460;SDS011;2243;48.812;9.232;2023-03-20T03:51:26;0.90;;;0.90;;
4460;SDS011;2243;48.812;9.232;2023-03-20T03:54:12;0.90;;;0.90;;
4460;SDS011;2243;48.812;9.232;2023-03-20T03:56:50;1.20;;;1.10;;
4460;SDS011;2243;48.812;9.232;2023-03-20T03:59:25;1.90;;;1.00;;
4460;SDS011;2243;48.812;9.232;2023-03-20T04:02:06;1.30;;;1.20;;
4460;SDS011;2243;48.812;9.232;2023-03-20T04:04:41;0.70;;;0.70;;
4460;SDS011;2243;48.812;9.232;2023-03-20T04:07:15;1.00;;;0.90;;
4460;SDS011;2243;48.812;9.232;2023-03-20T04:09:46;1.00;;;1.00;;
4460;SDS011;2243;48.812;9.232;2023-03-20T04:14:58;1.00;;;0.80;;
4460;SDS011;2243;48.812;9.232;2023-03-20T04:17:32;1.90;;;0.80;;
4460;SDS011;2243;48.812;9.232;2023-03-20T04:20:04;1.30;;;1.30;;
4460;SDS011;2243;48.812;9.232;2023-03-20T04:22:36;1.87;;;0.90;;
4460;SDS011;2243;48.812;9.232;2023-03-20T04:25:08;0.80;;;0.80;;
4460;SDS011;2243;48.812;9.232;2023-03-20T04:27:46;1.00;;;1.00;;
4460;SDS011;2243;48.812;9.232;2023-03-20T04:30:17;0.90;;;0.90;;
4460;SDS011;2243;48.812;9.232;2023-03-20T04:32:48;1.17;;;1.07;;
4460;SDS011;2243;48.812;9.232;2023-03-20T04:35:19;2.13;;;1.43;;
4460;SDS011;2243;48.812;9.232;2023-03-20T04:37:50;0.93;;;0.93;;
4460;SDS011;2243;48.812;9.232;2023-03-20T04:40:21;1.17;;;1.17;;
4460;SDS011;2243;48.812;9.232;2023-03-20T04:42:52;2.00;;;1.10;;
4460;SDS011;2243;48.812;9.232;2023-03-20T04:45:23;1.30;;;1.20;;
4460;SDS011;2243;48.812;9.232;2023-03-20T04:47:54;0.77;;;0.77;;
4460;SDS011;2243;48.812;9.232;2023-03-20T04:50:25;0.90;;;0.90;;
4460;SDS011;2243;48.812;9.232;2023-03-20T04:52:56;0.90;;;0.90;;
4460;SDS011;2243;48.812;9.232;2023-03-20T04:55:27;0.90;;;0.90;;
4460;SDS011;2243;48.812;9.232;2023-03-20T04:57:58;0.90;;;0.70;;
4460;SDS011;2243;48.812;9.232;2023-03-20T05:00:29;1.20;;;1.20;;
4460;SDS011;2243;48.812;9.232;2023-03-20T05:03:00;2.03;;;1.37;;
4460;SDS011;2243;48.812;9.232;2023-03-20T05:05:32;2.03;;;1.40;;
4460;SDS011;2243;48.812;9.232;2023-03-20T05:08:07;1.10;;;1.10;;
4460;SDS011;2243;48.812;9.232;2023-03-20T05:10:38;0.90;;;0.90;;
4460;SDS011;2243;48.812;9.232;2023-03-20T05:13:08;2.10;;;1.30;;
4460;SDS011;2243;48.812;9.232;2023-03-20T05:15:40;1.53;;;1.43;;
4460;SDS011;2243;48.812;9.232;2023-03-20T05:18:11;0.97;;;0.97;;
4460;SDS011;2243;48.812;9.232;2023-03-20T05:20:42;1.70;;;1.37;;
4460;SDS011;2243;48.812;9.232;2023-03-20T05:23:13;3.17;;;1.30;;
4460;SDS011;2243;48.812;9.232;2023-03-20T05:25:44;2.50;;;1.23;;
4460;SDS011;2243;48.812;9.232;2023-03-20T05:28:15;5.13;;;1.57;;
4460;SDS011;2243;48.812;9.232;2023-03-20T05:30:46;1.30;;;1.30;;
4460;SDS011;2243;48.812;9.232;2023-03-20T05:33:17;2.33;;;1.50;;
4460;SDS011;2243;48.812;9.232;2023-03-20T05:35:48;6.90;;;1.43;;
4460;SDS011;2243;48.812;9.232;2023-03-20T05:38:19;1.17;;;0.93;;
4460;SDS011;2243;48.812;9.232;2023-03-20T05:40:58;1.47;;;1.37;;
4460;SDS011;2243;48.812;9.232;2023-03-20T05:43:30;1.63;;;1.60;;
4460;SDS011;2243;48.812;9.232;2023-03-20T05:46:01;2.73;;;1.47;;
4460;SDS011;2243;48.812;9.232;2023-03-20T05:48:32;2.30;;;1.80;;
4460;SDS011;2243;48.812;9.232;2023-03-20T05:51:03;2.30;;;1.30;;
4460;SDS011;2243;48.812;9.232;2023-03-20T05:53:35;1.50;;;1.40;;
4460;SDS011;2243;48.812;9.232;2023-03-20T05:56:06;1.40;;;1.30;;
4460;SDS011;2243;48.812;9.232;2023-03-20T05:58:37;1.87;;;1.43;;
4460;SDS011;2243;48.812;9.232;2023-03-20T06:01:08;1.80;;;1.47;;
4460;SDS011;2243;48.812;9.232;2023-03-20T06:03:39;3.97;;;1.80;;
4460;SDS011;2243;48.812;9.232;2023-03-20T06:06:10;1.50;;;1.40;;
4460;SDS011;2243;48.812;9.232;2023-03-20T06:08:42;1.13;;;1.13;;
4460;SDS011;2243;48.812;9.232;2023-03-20T06:11:13;1.30;;;1.20;;
4460;SDS011;2243;48.812;9.232;2023-03-20T06:13:45;4.10;;;1.43;;
4460;SDS011;2243;48.812;9.232;2023-03-20T06:16:16;1.63;;;1.53;;
4460;SDS011;2243;48.812;9.232;2023-03-20T06:18:46;2.07;;;1.03;;
4460;SDS011;2243;48.812;9.232;2023-03-20T06:21:18;1.73;;;1.20;;
4460;SDS011;2243;48.812;9.232;2023-03-20T06:23:49;2.30;;;1.27;;
4460;SDS011;2243;48.812;9.232;2023-03-20T06:26:20;3.13;;;1.37;;
4460;SDS011;2243;48.812;9.232;2023-03-20T06:28:51;1.67;;;1.27;;
4460;SDS011;2243;48.812;9.232;2023-03-20T06:31:22;1.63;;;1.53;;
4460;SDS011;2243;48.812;9.232;2023-03-20T06:33:53;1.50;;;1.40;;
4460;SDS011;2243;48.812;9.232;2023-03-20T06:36:24;2.37;;;1.30;;
4460;SDS011;2243;48.812;9.232;2023-03-20T06:38:55;1.73;;;1.50;;
4460;SDS011;2243;48.812;9.232;2023-03-20T06:41:26;2.70;;;1.50;;
4460;SDS011;2243;48.812;9.232;2023-03-20T06:44:04;2.40;;;2.20;;
4460;SDS011;2243;48.812;9.232;2023-03-20T06:46:36;6.60;;;2.20;;
4460;SDS011;2243;48.812;9.232;2023-03-20T06:49:07;2.73;;;2.00;;
4460;SDS011;2243;48.812;9.232;2023-03-20T06:51:38;5.50;;;2.40;;
4460;SDS011;2243;48.812;9.232;2023-03-20T06:54:08;2.53;;;1.87;;
4460;SDS011;2243;48.812;9.232;2023-03-20T06:56:40;2.40;;;2.00;;
4460;SDS011;2243;48.812;9.232;2023-03-20T06:59:10;3.80;;;2.20;;
4460;SDS011;2243;48.812;9.232;2023-03-20T07:01:42;1.80;;;1.70;;
4460;SDS011;2243;48.812;9.232;2023-03-20T07:04:13;2.00;;;1.87;;
4460;SDS011;2243;48.812;9.232;2023-03-20T07:06:44;2.33;;;2.13;;
4460;SDS011;2243;48.812;9.232;2023-03-20T07:09:15;2.00;;;1.87;;
4460;SDS011;2243;48.812;9.232;2023-03-20T07:11:47;2.70;;;2.50;;
4460;SDS011;2243;48.812;9.232;2023-03-20T07:14:18;2.83;;;2.43;;
4460;SDS011;2243;48.812;9.232;2023-03-20T07:16:49;3.27;;;2.67;;
4460;SDS011;2243;48.812;9.232;2023-03-20T07:19:20;3.10;;;2.87;;
4460;SDS011;2243;48.812;9.232;2023-03-20T07:21:53;5.90;;;3.47;;
4460;SDS011;2243;48.812;9.232;2023-03-20T07:24:31;2.60;;;2.33;;
4460;SDS011;2243;48.812;9.232;2023-03-20T07:27:02;3.60;;;2.00;;
4460;SDS011;2243;48.812;9.232;2023-03-20T07:29:33;6.13;;;1.87;;
4460;SDS011;2243;48.812;9.232;2023-03-20T07:32:06;2.50;;;1.37;;
4460;SDS011;2243;48.812;9.232;2023-03-20T07:34:37;2.10;;;1.80;;
4460;SDS011;2243;48.812;9.232;2023-03-20T07:37:08;4.40;;;1.73;;
4460;SDS011;2243;48.812;9.232;2023-03-20T07:39:40;1.57;;;1.47;;
4460;SDS011;2243;48.812;9.232;2023-03-20T07:42:10;1.60;;;1.50;;
4460;SDS011;2243;48.812;9.232;2023-03-20T07:44:43;2.40;;;2.20;;
4460;SDS011;2243;48.812;9.232;2023-03-20T07:47:14;1.30;;;1.20;;
4460;SDS011;2243;48.812;9.232;2023-03-20T07:49:45;2.50;;;2.00;;
4460;SDS011;2243;48.812;9.232;2023-03-20T07:52:16;1.50;;;1.50;;
4460;SDS011;2243;48.812;9.232;2023-03-20T07:54:47;1.80;;;1.80;;
4460;SDS011;2243;48.812;9.232;2023-03-20T07:57:17;1.57;;;1.57;;
4460;SDS011;2243;48.812;9.232;2023-03-20T07:59:48;1.83;;;1.73;;
4460;SDS011;2243;48.812;9.232;2023-03-20T08:02:19;1.40;;;1.40;;
4460;SDS011;2243;48.812;9.232;2023-03-20T08:04:50;1.30;;;1.30;;
4460;SDS011;2243;48.812;9.232;2023-03-20T08:07:21;1.90;;;1.80;;
4460;SDS011;2243;48.812;9.232;2023-03-20T08:09:52;1.40;;;1.40;;
4460;SDS011;2243;48.812;9.232;2023-03-20T08:12:23;1.77;;;1.67;;
4460;SDS011;2243;48.812;9.232;2023-03-20T08:14:55;1.57;;;1.53;;
4460;SDS011;2243;48.812;9.232;2023-03-20T08:17:26;1.87;;;1.50;;
4460;SDS011;2243;48.812;9.232;2023-03-20T08:19:56;1.90;;;1.80;;
4460;SDS011;2243;48.812;9.232;2023-03-20T08:22:27;1.10;;;1.10;;
4460;SDS011;2243;48.812;9.232;2023-03-20T08:24:58;1.93;;;1.70;;
4460;SDS011;2243;48.812;9.232;2023-03-20T08:27:30;1.43;;;1.30;;
4460;SDS011;2243;48.812;9.232;2023-03-20T08:30:01;1.70;;;1.60;;
4460;SDS011;2243;48.812;9.232;2023-03-20T08:32:33;1.53;;;1.43;;
4460;SDS011;2243;48.812;9.232;2023-03-20T08:35:04;1.60;;;1.50;;
4460;SDS011;2243;48.812;9.232;2023-03-20T08:37:51;1.70;;;1.60;;
4460;SDS011;2243;48.812;9.232;2023-03-20T08:40:22;1.93;;;1.50;;
4460;SDS011;2243;48.812;9.232;2023-03-20T08:42:53;1.57;;;1.47;;
4460;SDS011;2243;48.812;9.232;2023-03-20T08:45:24;1.80;;;1.67;;
4460;SDS011;2243;48.812;9.232;2023-03-20T08:47:55;1.43;;;1.30;;
4460;SDS011;2243;48.812;9.232;2023-03-20T08:50:26;1.80;;;1.70;;
4460;SDS011;2243;48.812;9.232;2023-03-20T08:52:57;2.63;;;1.37;;
4460;SDS011;2243;48.812;9.232;2023-03-20T08:55:28;1.77;;;1.67;;
4460;SDS011;2243;48.812;9.232;2023-03-20T08:57:59;0.90;;;0.90;;
4460;SDS011;2243;48.812;9.232;2023-03-20T09:00:30;1.40;;;1.40;;
4460;SDS011;2243;48.812;9.232;2023-03-20T09:03:01;1.73;;;1.63;;
4460;SDS011;2243;48.812;9.232;2023-03-20T09:05:32;1.30;;;1.30;;
4460;SDS011;2243;48.812;9.232;2023-03-20T09:08:06;1.77;;;1.67;;
4460;SDS011;2243;48.812;9.232;2023-03-20T09:10:37;1.80;;;1.70;;
4460;SDS011;2243;48.812;9.232;2023-03-20T09:13:09;1.37;;;1.37;;
4460;SDS011;2243;48.812;9.232;2023-03-20T09:15:56;1.53;;;1.43;;
4460;SDS011;2243;48.812;9.232;2023-03-20T09:18:27;3.50;;;1.80;;
4460;SDS011;2243;48.812;9.232;2023-03-20T09:20:58;1.30;;;1.30;;
4460;SDS011;2243;48.812;9.232;2023-03-20T09:23:29;1.23;;;1.23;;
4460;SDS011;2243;48.812;9.232;2023-03-20T09:26:01;3.97;;;2.13;;
4460;SDS011;2243;48.812;9.232;2023-03-20T09:28:32;1.33;;;1.33;;
4460;SDS011;2243;48.812;9.232;2023-03-20T09:31:03;1.27;;;1.17;;
4460;SDS011;2243;48.812;9.232;2023-03-20T09:33:35;1.10;;;1.10;;
4460;SDS011;2243;48.812;9.232;2023-03-20T09:36:06;1.20;;;1.20;;
4460;SDS011;2243;48.812;9.232;2023-03-20T09:38:41;1.40;;;1.30;;
4460;SDS011;2243;48.812;9.232;2023-03-20T09:41:19;4.20;;;1.10;;
4460;SDS011;2243;48.812;9.232;2023-03-20T09:44:03;0.90;;;0.90;;
4460;SDS011;2243;48.812;9.232;2023-03-20T09:47:17;2.00;;;1.90;;
4460;SDS011;2243;48.812;9.232;2023-03-20T09:52:41;1.00;;;1.00;;
4460;SDS011;2243;48.812;9.232;2023-03-20T09:55:22;1.10;;;1.00;;
4460;SDS011;2243;48.812;9.232;2023-03-20T09:58:16;1.20;;;1.20;;
4460;SDS011;2243;48.812;9.232;2023-03-20T10:00:57;1.17;;;1.17;;
4460;SDS011;2243;48.812;9.232;2023-03-20T10:06:20;1.20;;;1.10;;
4460;SDS011;2243;48.812;9.232;2023-03-20T10:08:51;1.70;;;1.10;;
4460;SDS011;2243;48.812;9.232;2023-03-20T10:15:09;1.67;;;1.57;;
4460;SDS011;2243;48.812;9.232;2023-03-20T10:25:48;1.63;;;1.53;;
4460;SDS011;2243;48.812;9.232;2023-03-20T10:43:00;1.70;;;1.60;;
4460;SDS011;2243;48.812;9.232;2023-03-20T10:45:45;2.80;;;1.90;;
4460;SDS011;2243;48.812;9.232;2023-03-20T10:48:24;2.10;;;2.00;;
4460;SDS011;2243;48.812;9.232;2023-03-20T10:51:03;2.50;;;2.40;;
4460;SDS011;2243;48.812;9.232;2023-03-20T10:53:36;2.40;;;2.30;;
4460;SDS011;2243;48.812;9.232;2023-03-20T11:01:52;2.17;;;2.03;;
4460;SDS011;2243;48.812;9.232;2023-03-20T11:04:24;2.53;;;2.33;;
4460;SDS011;2243;48.812;9.232;2023-03-20T11:07:02;2.67;;;2.47;;
4460;SDS011;2243;48.812;9.232;2023-03-20T11:12:36;4.00;;;3.50;;
4460;SDS011;2243;48.812;9.232;2023-03-20T11:15:15;6.20;;;3.07;;
4460;SDS011;2243;48.812;9.232;2023-03-20T11:17:53;4.30;;;3.90;;
4460;SDS011;2243;48.812;9.232;2023-03-20T11:20:31;4.10;;;3.70;;
4460;SDS011;2243;48.812;9.232;2023-03-20T11:23:10;5.80;;;4.03;;
4460;SDS011;2243;48.812;9.232;2023-03-20T11:28:33;4.13;;;3.83;;
4460;SDS011;2243;48.812;9.232;2023-03-20T11:33:44;5.30;;;4.80;;
4460;SDS011;2243;48.812;9.232;2023-03-20T11:37:00;4.60;;;4.20;;
4460;SDS011;2243;48.812;9.232;2023-03-20T11:39:42;4.40;;;4.00;;
4460;SDS011;2243;48.812;9.232;2023-03-20T11:42:28;4.03;;;3.73;;
4460;SDS011;2243;48.812;9.232;2023-03-20T11:45:01;4.80;;;4.40;;
4460;SDS011;2243;48.812;9.232;2023-03-20T11:47:53;6.20;;;5.60;;
4460;SDS011;2243;48.812;9.232;2023-03-20T11:53:21;5.60;;;5.20;;
4460;SDS011;2243;48.812;9.232;2023-03-20T11:56:08;5.60;;;4.90;;
4460;SDS011;2243;48.812;9.232;2023-03-20T12:01:48;5.30;;;4.33;;
4460;SDS011;2243;48.812;9.232;2023-03-20T12:04:33;11.00;;;4.60;;
4460;SDS011;2243;48.812;9.232;2023-03-20T12:07:26;8.03;;;5.43;;
4460;SDS011;2243;48.812;9.232;2023-03-20T12:10:03;6.50;;;5.80;;
4460;SDS011;2243;48.812;9.232;2023-03-20T12:15:33;6.73;;;4.83;;
4460;SDS011;2243;48.812;9.232;2023-03-20T12:18:16;5.13;;;4.60;;
4460;SDS011;2243;48.812;9.232;2023-03-20T12:27:46;7.40;;;4.90;;
4460;SDS011;2243;48.812;9.232;2023-03-20T12:30:15;4.77;;;4.23;;
4460;SDS011;2243;48.812;9.232;2023-03-20T12:35:36;11.10;;;4.30;;
4460;SDS011;2243;48.812;9.232;2023-03-20T12:38:25;5.00;;;4.60;;
4460;SDS011;2243;48.812;9.232;2023-03-20T12:41:06;5.10;;;4.27;;
4460;SDS011;2243;48.812;9.232;2023-03-20T12:53:24;4.63;;;3.73;;
4460;SDS011;2243;48.812;9.232;2023-03-20T13:03:03;5.43;;;4.27;;
4460;SDS011;2243;48.812;9.232;2023-03-20T13:14:34;6.40;;;3.50;;
4460;SDS011;2243;48.812;9.232;2023-03-20T13:20:20;3.60;;;3.30;;
4460;SDS011;2243;48.812;9.232;2023-03-20T13:24:11;4.97;;;3.33;;
4460;SDS011;2243;48.812;9.232;2023-03-20T13:37:48;4.73;;;4.33;;
4460;SDS011;2243;48.812;9.232;2023-03-20T13:40:40;5.33;;;3.53;;
4460;SDS011;2243;48.812;9.232;2023-03-20T13:43:23;3.20;;;3.00;;
4460;SDS011;2243;48.812;9.232;2023-03-20T13:46:06;4.33;;;3.93;;
4460;SDS011;2243;48.812;9.232;2023-03-20T13:48:43;4.20;;;3.53;;
4460;SDS011;2243;48.812;9.232;2023-03-20T13:59:49;2.93;;;2.83;;
4460;SDS011;2243;48.812;9.232;2023-03-20T14:02:37;3.30;;;3.10;;
4460;SDS011;2243;48.812;9.232;2023-03-20T14:05:34;4.53;;;4.17;;
4460;SDS011;2243;48.812;9.232;2023-03-20T14:13:54;3.77;;;3.47;;
4460;SDS011;2243;48.812;9.232;2023-03-20T14:16:59;4.47;;;3.80;;
4460;SDS011;2243;48.812;9.232;2023-03-20T14:19:53;3.60;;;3.30;;
4460;SDS011;2243;48.812;9.232;2023-03-20T14:22:30;4.07;;;3.70;;
4460;SDS011;2243;48.812;9.232;2023-03-20T14:25:07;4.00;;;3.60;;
4460;SDS011;2243;48.812;9.232;2023-03-20T14:27:55;3.63;;;3.33;;
4460;SDS011;2243;48.812;9.232;2023-03-20T14:35:45;6.40;;;2.90;;
4460;SDS011;2243;48.812;9.232;2023-03-20T14:38:28;2.70;;;2.60;;
4460;SDS011;2243;48.812;9.232;2023-03-20T14:41:16;2.47;;;2.27;;
4460;SDS011;2243;48.812;9.232;2023-03-20T14:44:14;3.10;;;2.90;;
4460;SDS011;2243;48.812;9.232;2023-03-20T14:55:51;3.17;;;2.90;;
4460;SDS011;2243;48.812;9.232;2023-03-20T15:04:12;2.13;;;2.03;;
4460;SDS011;2243;48.812;9.232;2023-03-20T15:06:57;2.53;;;2.33;;
4460;SDS011;2243;48.812;9.232;2023-03-20T15:09:46;2.70;;;2.50;;
4460;SDS011;2243;48.812;9.232;2023-03-20T15:12:22;2.43;;;2.23;;
4460;SDS011;2243;48.812;9.232;2023-03-20T15:14:57;2.33;;;2.23;;
4460;SDS011;2243;48.812;9.232;2023-03-20T15:17:34;4.50;;;2.30;;
4460;SDS011;2243;48.812;9.232;2023-03-20T15:20:16;2.70;;;2.50;;
4460;SDS011;2243;48.812;9.232;2023-03-20T15:22:56;2.27;;;2.10;;
4460;SDS011;2243;48.812;9.232;2023-03-20T15:25:40;2.43;;;2.23;;
4460;SDS011;2243;48.812;9.232;2023-03-20T15:28:23;9.60;;;7.60;;
4460;SDS011;2243;48.812;9.232;2023-03-20T15:30:56;3.90;;;3.50;;
4460;SDS011;2243;48.812;9.232;2023-03-20T15:33:32;2.80;;;2.60;;
4460;SDS011;2243;48.812;9.232;2023-03-20T15:36:16;10.20;;;2.90;;
4460;SDS011;2243;48.812;9.232;2023-03-20T15:38:50;2.67;;;2.47;;
4460;SDS011;2243;48.812;9.232;2023-03-20T15:41:31;2.90;;;2.70;;
4460;SDS011;2243;48.812;9.232;2023-03-20T15:44:14;2.47;;;2.27;;
4460;SDS011;2243;48.812;9.232;2023-03-20T15:46:53;2.50;;;2.17;;
4460;SDS011;2243;48.812;9.232;2023-03-20T15:49:31;3.40;;;3.13;;
4460;SDS011;2243;48.812;9.232;2023-03-20T15:52:04;2.73;;;2.17;;
4460;SDS011;2243;48.812;9.232;2023-03-20T15:54:42;2.67;;;2.47;;
4460;SDS011;2243;48.812;9.232;2023-03-20T15:57:23;3.70;;;3.03;;
4460;SDS011;2243;48.812;9.232;2023-03-20T16:00:06;2.17;;;2.03;;
4460;SDS011;2243;48.812;9.232;2023-03-20T16:02:49;2.40;;;2.20;;
4460;SDS011;2243;48.812;9.232;2023-03-20T16:05:23;2.87;;;2.67;;
4460;SDS011;2243;48.812;9.232;2023-03-20T16:07:57;5.50;;;2.80;;
4460;SDS011;2243;48.812;9.232;2023-03-20T16:10:57;2.87;;;2.67;;
4460;SDS011;2243;48.812;9.232;2023-03-20T16:13:43;3.20;;;2.97;;
4460;SDS011;2243;48.812;9.232;2023-03-20T16:16:17;4.07;;;2.57;;
4460;SDS011;2243;48.812;9.232;2023-03-20T16:18:53;6.13;;;2.87;;
4460;SDS011;2243;48.812;9.232;2023-03-20T16:21:25;2.13;;;2.03;;
4460;SDS011;2243;48.812;9.232;2023-03-20T16:24:01;2.70;;;2.50;;
4460;SDS011;2243;48.812;9.232;2023-03-20T16:26:39;2.40;;;2.20;;
4460;SDS011;2243;48.812;9.232;2023-03-20T16:29:14;2.57;;;2.37;;
4460;SDS011;2243;48.812;9.232;2023-03-20T16:31:47;2.60;;;2.40;;
4460;SDS011;2243;48.812;9.232;2023-03-20T16:34:33;2.60;;;1.53;;
4460;SDS011;2243;48.812;9.232;2023-03-20T16:37:23;2.10;;;1.80;;
4460;SDS011;2243;48.812;9.232;2023-03-20T16:40:01;2.53;;;2.03;;
4460;SDS011;2243;48.812;9.232;2023-03-20T16:43:14;2.40;;;2.10;;
4460;SDS011;2243;48.812;9.232;2023-03-20T16:45:51;3.03;;;2.13;;
4460;SDS011;2243;48.812;9.232;2023-03-20T16:48:31;2.83;;;2.40;;
4460;SDS011;2243;48.812;9.232;2023-03-20T16:51:16;2.33;;;2.13;;
4460;SDS011;2243;48.812;9.232;2023-03-20T16:53:55;2.53;;;2.10;;
4460;SDS011;2243;48.812;9.232;2023-03-20T16:56:34;2.27;;;2.17;;
4460;SDS011;2243;48.812;9.232;2023-03-20T16:59:08;2.53;;;2.00;;
4460;SDS011;2243;48.812;9.232;2023-03-20T17:01:42;5.20;;;2.67;;
4460;SDS011;2243;48.812;9.232;2023-03-20T17:07:11;2.60;;;2.50;;
4460;SDS011;2243;48.812;9.232;2023-03-20T17:12:49;3.97;;;3.23;;
4460;SDS011;2243;48.812;9.232;2023-03-20T17:15:22;3.33;;;3.03;;
4460;SDS011;2243;48.812;9.232;2023-03-20T17:17:54;3.50;;;3.30;;
4460;SDS011;2243;48.812;9.232;2023-03-20T17:20:27;3.57;;;3.27;;
4460;SDS011;2243;48.812;9.232;2023-03-20T17:23:00;5.90;;;3.40;;
4460;SDS011;2243;48.812;9.232;2023-03-20T17:25:34;5.60;;;3.33;;
4460;SDS011;2243;48.812;9.232;2023-03-20T17:28:05;3.50;;;3.30;;
4460;SDS011;2243;48.812;9.232;2023-03-20T17:30:36;5.83;;;3.77;;
4460;SDS011;2243;48.812;9.232;2023-03-20T17:33:11;3.03;;;2.73;;
4460;SDS011;2243;48.812;9.232;2023-03-20T17:35:44;2.90;;;2.60;;
4460;SDS011;2243;48.812;9.232;2023-03-20T17:38:17;3.40;;;3.10;;
4460;SDS011;2243;48.812;9.232;2023-03-20T17:40:51;3.20;;;2.90;;
4460;SDS011;2243;48.812;9.232;2023-03-20T17:43:22;3.67;;;2.70;;
4460;SDS011;2243;48.812;9.232;2023-03-20T17:45:53;4.43;;;3.30;;
4460;SDS011;2243;48.812;9.232;2023-03-20T17:48:24;3.03;;;2.83;;
4460;SDS011;2243;48.812;9.232;2023-03-20T17:50:56;3.77;;;3.43;;
4460;SDS011;2243;48.812;9.232;2023-03-20T17:53:27;4.03;;;3.67;;
4460;SDS011;2243;48.812;9.232;2023-03-20T17:56:00;4.03;;;3.40;;
4460;SDS011;2243;48.812;9.232;2023-03-20T17:58:31;3.50;;;3.20;;
4460;SDS011;2243;48.812;9.232;2023-03-20T18:01:04;3.30;;;3.10;;
4460;SDS011;2243;48.812;9.232;2023-03-20T18:03:38;3.97;;;3.03;;
4460;SDS011;2243;48.812;9.232;2023-03-20T18:06:23;3.13;;;2.83;;
4460;SDS011;2243;48.812;9.232;2023-03-20T18:08:58;3.03;;;2.63;;
4460;SDS011;2243;48.812;9.232;2023-03-20T18:11:30;3.57;;;3.27;;
4460;SDS011;2243;48.812;9.232;2023-03-20T18:14:01;3.50;;;3.20;;
4460;SDS011;2243;48.812;9.232;2023-03-20T18:16:32;4.13;;;3.00;;
4460;SDS011;2243;48.812;9.232;2023-03-20T18:19:03;3.50;;;3.20;;
4460;SDS011;2243;48.812;9.232;2023-03-20T18:21:34;6.73;;;3.20;;
4460;SDS011;2243;48.812;9.232;2023-03-20T18:24:05;3.27;;;3.07;;
4460;SDS011;2243;48.812;9.232;2023-03-20T18:26:36;3.50;;;3.20;;
4460;SDS011;2243;48.812;9.232;2023-03-20T18:29:07;3.90;;;3.20;;
4460;SDS011;2243;48.812;9.232;2023-03-20T18:31:39;3.20;;;3.00;;
4460;SDS011;2243;48.812;9.232;2023-03-20T18:34:13;5.60;;;4.10;;
4460;SDS011;2243;48.812;9.232;2023-03-20T18:36:44;3.30;;;3.10;;
4460;SDS011;2243;48.812;9.232;2023-03-20T18:39:16;3.30;;;3.10;;
4460;SDS011;2243;48.812;9.232;2023-03-20T18:41:53;3.70;;;3.40;;
4460;SDS011;2243;48.812;9.232;2023-03-20T18:44:24;3.73;;;3.40;;
4460;SDS011;2243;48.812;9.232;2023-03-20T18:46:55;3.33;;;3.13;;
4460;SDS011;2243;48.812;9.232;2023-03-20T18:49:26;4.13;;;2.77;;
4460;SDS011;2243;48.812;9.232;2023-03-20T18:51:57;2.63;;;2.40;;
4460;SDS011;2243;48.812;9.232;2023-03-20T18:54:28;2.33;;;2.23;;
4460;SDS011;2243;48.812;9.232;2023-03-20T18:56:59;2.70;;;2.60;;
4460;SDS011;2243;48.812;9.232;2023-03-20T18:59:30;3.07;;;2.83;;
4460;SDS011;2243;48.812;9.232;2023-03-20T19:02:01;5.30;;;3.00;;
4460;SDS011;2243;48.812;9.232;2023-03-20T19:04:32;4.60;;;3.23;;
4460;SDS011;2243;48.812;9.232;2023-03-20T19:07:04;2.87;;;2.63;;
4460;SDS011;2243;48.812;9.232;2023-03-20T19:09:35;2.60;;;2.50;;
4460;SDS011;2243;48.812;9.232;2023-03-20T19:12:06;2.90;;;2.67;;
4460;SDS011;2243;48.812;9.232;2023-03-20T19:14:37;4.03;;;3.73;;
4460;SDS011;2243;48.812;9.232;2023-03-20T19:17:10;2.60;;;2.40;;
4460;SDS011;2243;48.812;9.232;2023-03-20T19:19:41;4.10;;;3.60;;
4460;SDS011;2243;48.812;9.232;2023-03-20T19:22:12;3.60;;;3.47;;